DW1872 Islamorada FL US current weather conditions

sailwx.info

Wind from 182

Air temperature 28.3° C
Dewpoint 25.2° C

Last reported at 2020-Sep-28 23:15 UTC.
Time now 2020-Sep-29 11:31 UTC

Location: N 24°55' W 080°38'.
View on Google Maps.

See reports from other nearby stations

  
Tides and Currents Weather Stations Pressure Air Temp Water Temp Dewpoint Dewpoint Depression Visibility Wind Speed Wind Dir Waves Ship Positions
date/time (UTC)wind fromknots sea level pressurealtimeterstation pressurevisibilityair tempwater tempwave heightnotes
2020-Sep-28 23:15 182 28.3
2020-Sep-28 15:15 113 0 gusting 5 27.2
2020-Sep-28 11:03 151 1 gusting 6 27.8
2020-Sep-28 10:46 163 2 gusting 5 27.8
2020-Sep-28 10:31 187 1 gusting 5 27.8
2020-Sep-28 10:16 158 0 gusting 4 27.8
2020-Sep-28 10:01 174 0 gusting 4 27.8
2020-Sep-28 09:46 166 1 gusting 4 27.8
2020-Sep-28 09:32 164 1 gusting 5 27.2
2020-Sep-28 09:17 209 27.2
2020-Sep-28 09:02 193 27.2
2020-Sep-28 08:47 204 0 gusting 3 27.8
2020-Sep-28 08:33 201 0 gusting 3 27.8
2020-Sep-28 08:16 190 1 gusting 4 27.8
2020-Sep-28 08:03 202 1 gusting 5 27.8
2020-Sep-28 07:46 166 1 gusting 5 28.3
2020-Sep-28 07:30 147 0 gusting 4 28.3
2020-Sep-28 07:16 151 4 gusting 7 28.3
2020-Sep-28 07:01 154 1 gusting 3 28.3
2020-Sep-28 06:45 170 27.8
2020-Sep-28 06:30 170 0 gusting 4 28.3
2020-Sep-28 06:15 174 0 gusting 2 27.8
2020-Sep-28 06:00 164 1 gusting 4 27.8
2020-Sep-28 05:46 155 2 gusting 3 27.8
2020-Sep-28 05:31 149 1 gusting 4 28.3
2020-Sep-28 05:15 110 0 gusting 3 28.3
2020-Sep-28 05:01 129 2 gusting 3 28.3
2020-Sep-28 04:45 120 0 gusting 2 27.8
2020-Sep-28 04:31 122 2 gusting 3 28.3
2020-Sep-28 04:16 045 27.8
2020-Sep-28 04:01 046 28.3
2020-Sep-28 03:31 049 0 gusting 2 28.3
2020-Sep-28 03:15 048 28.3
2020-Sep-28 03:01 048 28.3
2020-Sep-28 02:45 048 28.3
2020-Sep-28 02:30 049 0 gusting 1 28.3
2020-Sep-28 02:15 049 0 gusting 2 28.3
2020-Sep-28 02:00 050 28.3
2020-Sep-28 01:45 050 0 gusting 3 28.3
2020-Sep-28 01:30 040 0 gusting 2 28.3
2020-Sep-28 01:15 337 28.3
2020-Sep-28 01:00 337 28.3
2020-Sep-28 00:45 346 1 gusting 3 28.3
2020-Sep-28 00:30 354 28.3
2020-Sep-28 00:15 359 1 gusting 3 28.3
2020-Sep-28 00:01 330 2 gusting 5 28.3
2020-Sep-27 23:45 359 4 gusting 7 28.3
2020-Sep-27 23:31 340 5 gusting 8 28.3
2020-Sep-27 23:16 253 0 gusting 2 28.9
2020-Sep-27 23:00 250 0 gusting 3 28.9
2020-Sep-27 22:45 208 0 gusting 2 28.9
2020-Sep-27 22:30 207 0 gusting 2 28.9
2020-Sep-27 22:15 207 1 gusting 2 29.4
2020-Sep-27 22:00 216 29.4
2020-Sep-27 21:45 208 0 gusting 4 29.4
2020-Sep-27 21:30 203 1 gusting 3 29.4
2020-Sep-27 21:16 193 1 gusting 4 29.4
2020-Sep-27 21:00 184 1 gusting 4 29.4
2020-Sep-27 20:45 178 1 gusting 3 29.4
2020-Sep-27 20:31 199 1 gusting 5 29.4
2020-Sep-27 20:15 144 2 gusting 6 30.0
2020-Sep-27 20:00 176 2 gusting 5 30.0
2020-Sep-27 19:45 208 4 gusting 6 29.4
2020-Sep-27 19:30 143 4 gusting 6 30.0
2020-Sep-27 19:15 188 1 gusting 5 30.0
2020-Sep-27 19:00 183 1 gusting 6 29.4
2020-Sep-27 18:45 134 2 gusting 6 29.4
2020-Sep-27 18:31 155 3 gusting 7 29.4
2020-Sep-27 18:16 147 2 gusting 6 29.4
2020-Sep-27 18:00 147 2 gusting 6 29.4
2020-Sep-27 17:45 113 0 gusting 6 29.4
2020-Sep-27 17:30 105 3 gusting 6 29.4
2020-Sep-27 17:15 071 2 gusting 6 29.4
2020-Sep-27 17:00 349 0 gusting 5 29.4
2020-Sep-27 16:45 359 2 gusting 4 28.9
2020-Sep-27 16:30 013 1 gusting 3 30.0
2020-Sep-27 16:18 354 1 gusting 4 29.4
2020-Sep-27 16:01 023 1 gusting 4 29.4
2020-Sep-27 15:46 359 2 gusting 4 28.9
2020-Sep-27 15:16 004 2 gusting 4 28.9
2020-Sep-27 15:01 004 2 gusting 4 28.9
2020-Sep-27 14:46 008 2 gusting 5 28.9
2020-Sep-27 14:30 359 3 gusting 5 28.3
2020-Sep-27 14:15 010 2 gusting 4 27.8
2020-Sep-27 14:00 040 1 gusting 4 27.8
2020-Sep-27 13:45 008 1 gusting 3 28.3
2020-Sep-27 13:30 354 2 gusting 4 28.9
2020-Sep-27 13:15 020 28.3
2020-Sep-27 13:00 050 0 gusting 2 28.3
2020-Sep-27 12:45 004 28.3
2020-Sep-27 12:30 359 1 gusting 4 27.8
2020-Sep-27 12:15 335 3 gusting 6 27.8
2020-Sep-27 12:00 251 27.8
2020-Sep-27 11:45 249 0 gusting 1 27.2
2020-Sep-27 11:30 249 27.2
2020-Sep-27 11:18 359 27.2
2020-Sep-27 11:01 249 27.2